sensor_id;sensor_type;location;lat;lon;timestamp;temperature;humidity
24338;DHT22;12457;50.832;4.346;2023-03-05T00:01:36;6.40;80.90
24338;DHT22;12457;50.832;4.346;2023-03-05T00:04:02;6.50;81.30
24338;DHT22;12457;50.832;4.346;2023-03-05T00:06:28;6.60;78.80
24338;DHT22;12457;50.832;4.346;2023-03-05T00:08:54;6.60;79.00
24338;DHT22;12457;50.832;4.346;2023-03-05T00:11:21;6.70;76.70
24338;DHT22;12457;50.832;4.346;2023-03-05T00:13:47;6.70;72.80
24338;DHT22;12457;50.832;4.346;2023-03-05T00:16:13;6.70;72.90
24338;DHT22;12457;50.832;4.346;2023-03-05T00:18:39;6.80;76.20
24338;DHT22;12457;50.832;4.346;2023-03-05T00:21:15;6.70;74.30
24338;DHT22;12457;50.832;4.346;2023-03-05T00:23:41;6.60;76.20
24338;DHT22;12457;50.832;4.346;2023-03-05T00:26:07;6.50;79.00
24338;DHT22;12457;50.832;4.346;2023-03-05T00:28:32;6.50;80.20
24338;DHT22;12457;50.832;4.346;2023-03-05T00:30:59;6.40;84.40
24338;DHT22;12457;50.832;4.346;2023-03-05T00:33:25;6.40;86.60
24338;DHT22;12457;50.832;4.346;2023-03-05T00:35:51;6.30;86.60
24338;DHT22;12457;50.832;4.346;2023-03-05T00:38:16;6.30;89.60
24338;DHT22;12457;50.832;4.346;2023-03-05T00:40:42;6.30;86.30
24338;DHT22;12457;50.832;4.346;2023-03-05T00:43:07;6.30;87.20
24338;DHT22;12457;50.832;4.346;2023-03-05T00:45:33;6.20;89.50
24338;DHT22;12457;50.832;4.346;2023-03-05T00:48:02;6.20;88.60
24338;DHT22;12457;50.832;4.346;2023-03-05T00:50:28;6.20;90.00
24338;DHT22;12457;50.832;4.346;2023-03-05T00:52:54;6.10;91.20
24338;DHT22;12457;50.832;4.346;2023-03-05T00:55:20;5.90;93.50
24338;DHT22;12457;50.832;4.346;2023-03-05T00:57:45;5.90;94.60
24338;DHT22;12457;50.832;4.346;2023-03-05T01:00:12;6.10;93.90
24338;DHT22;12457;50.832;4.346;2023-03-05T01:02:37;6.20;91.90
24338;DHT22;12457;50.832;4.346;2023-03-05T01:05:03;6.20;92.00
24338;DHT22;12457;50.832;4.346;2023-03-05T01:07:29;6.10;91.30
24338;DHT22;12457;50.832;4.346;2023-03-05T01:09:55;5.90;93.50
24338;DHT22;12457;50.832;4.346;2023-03-05T01:12:20;5.90;94.90
24338;DHT22;12457;50.832;4.346;2023-03-05T01:14:46;5.80;96.60
24338;DHT22;12457;50.832;4.346;2023-03-05T01:17:11;5.70;97.40
24338;DHT22;12457;50.832;4.346;2023-03-05T01:19:37;5.70;98.60
24338;DHT22;12457;50.832;4.346;2023-03-05T01:22:04;5.70;99.20
24338;DHT22;12457;50.832;4.346;2023-03-05T01:24:30;5.70;99.30
24338;DHT22;12457;50.832;4.346;2023-03-05T01:26:56;5.80;99.70
24338;DHT22;12457;50.832;4.346;2023-03-05T01:29:23;5.90;98.90
24338;DHT22;12457;50.832;4.346;2023-03-05T01:31:49;5.80;99.40
24338;DHT22;12457;50.832;4.346;2023-03-05T01:34:14;6.00;98.70
24338;DHT22;12457;50.832;4.346;2023-03-05T01:36:40;6.00;97.50
24338;DHT22;12457;50.832;4.346;2023-03-05T01:39:06;5.90;97.60
24338;DHT22;12457;50.832;4.346;2023-03-05T01:41:32;6.00;97.00
24338;DHT22;12457;50.832;4.346;2023-03-05T01:43:58;5.90;97.30
24338;DHT22;12457;50.832;4.346;2023-03-05T01:46:31;6.00;97.70
24338;DHT22;12457;50.832;4.346;2023-03-05T01:51:28;6.10;95.10
24338;DHT22;12457;50.832;4.346;2023-03-05T01:53:54;5.90;96.30
24338;DHT22;12457;50.832;4.346;2023-03-05T01:56:22;6.30;93.20
24338;DHT22;12457;50.832;4.346;2023-03-05T01:58:48;6.40;90.60
24338;DHT22;12457;50.832;4.346;2023-03-05T02:01:14;6.30;90.00
24338;DHT22;12457;50.832;4.346;2023-03-05T02:03:41;6.20;91.70
24338;DHT22;12457;50.832;4.346;2023-03-05T02:06:07;6.00;94.00
24338;DHT22;12457;50.832;4.346;2023-03-05T02:08:32;6.00;96.50
24338;DHT22;12457;50.832;4.346;2023-03-05T02:10:58;6.10;97.80
24338;DHT22;12457;50.832;4.346;2023-03-05T02:13:27;6.30;96.20
24338;DHT22;12457;50.832;4.346;2023-03-05T02:15:54;6.20;94.40
24338;DHT22;12457;50.832;4.346;2023-03-05T02:18:20;6.00;95.20
24338;DHT22;12457;50.832;4.346;2023-03-05T02:23:22;6.00;96.40
24338;DHT22;12457;50.832;4.346;2023-03-05T02:25:47;6.00;96.70
24338;DHT22;12457;50.832;4.346;2023-03-05T02:30:41;6.10;95.30
24338;DHT22;12457;50.832;4.346;2023-03-05T02:33:07;6.10;96.10
24338;DHT22;12457;50.832;4.346;2023-03-05T02:35:33;6.10;95.60
24338;DHT22;12457;50.832;4.346;2023-03-05T02:37:58;6.10;95.20
24338;DHT22;12457;50.832;4.346;2023-03-05T02:40:24;6.10;95.40
24338;DHT22;12457;50.832;4.346;2023-03-05T02:42:49;6.10;96.20
24338;DHT22;12457;50.832;4.346;2023-03-05T02:45:15;6.10;97.10
24338;DHT22;12457;50.832;4.346;2023-03-05T02:47:42;6.20;96.10
24338;DHT22;12457;50.832;4.346;2023-03-05T02:50:08;6.30;94.40
24338;DHT22;12457;50.832;4.346;2023-03-05T02:52:35;6.30;94.50
24338;DHT22;12457;50.832;4.346;2023-03-05T02:55:00;6.30;92.70
24338;DHT22;12457;50.832;4.346;2023-03-05T02:57:26;6.10;94.10
24338;DHT22;12457;50.832;4.346;2023-03-05T02:59:51;6.00;97.70
24338;DHT22;12457;50.832;4.346;2023-03-05T03:02:17;6.00;99.00
24338;DHT22;12457;50.832;4.346;2023-03-05T03:04:43;5.90;99.20
24338;DHT22;12457;50.832;4.346;2023-03-05T03:07:12;6.00;99.90
24338;DHT22;12457;50.832;4.346;2023-03-05T03:09:38;6.10;99.90
24338;DHT22;12457;50.832;4.346;2023-03-05T03:12:06;6.10;98.10
24338;DHT22;12457;50.832;4.346;2023-03-05T03:14:35;6.00;99.90
24338;DHT22;12457;50.832;4.346;2023-03-05T03:17:07;5.90;99.90
24338;DHT22;12457;50.832;4.346;2023-03-05T03:19:33;5.80;99.90
24338;DHT22;12457;50.832;4.346;2023-03-05T03:21:59;5.70;99.90
24338;DHT22;12457;50.832;4.346;2023-03-05T03:24:25;5.80;99.90
24338;DHT22;12457;50.832;4.346;2023-03-05T03:26:50;5.80;99.90
24338;DHT22;12457;50.832;4.346;2023-03-05T03:29:16;5.80;99.90
24338;DHT22;12457;50.832;4.346;2023-03-05T03:31:42;6.00;99.90
24338;DHT22;12457;50.832;4.346;2023-03-05T03:34:19;6.20;99.90
24338;DHT22;12457;50.832;4.346;2023-03-05T03:36:46;6.30;98.70
24338;DHT22;12457;50.832;4.346;2023-03-05T03:39:11;6.10;98.70
24338;DHT22;12457;50.832;4.346;2023-03-05T03:41:46;5.90;99.90
24338;DHT22;12457;50.832;4.346;2023-03-05T03:44:12;5.90;99.90
24338;DHT22;12457;50.832;4.346;2023-03-05T03:46:38;5.90;99.90
24338;DHT22;12457;50.832;4.346;2023-03-05T03:49:04;6.00;99.90
24338;DHT22;12457;50.832;4.346;2023-03-05T03:54:33;6.00;99.90
24338;DHT22;12457;50.832;4.346;2023-03-05T03:57:00;6.00;99.90
24338;DHT22;12457;50.832;4.346;2023-03-05T03:59:25;6.20;99.90
24338;DHT22;12457;50.832;4.346;2023-03-05T04:01:51;6.10;98.80
24338;DHT22;12457;50.832;4.346;2023-03-05T04:04:16;6.20;99.00
24338;DHT22;12457;50.832;4.346;2023-03-05T04:06:42;6.10;98.30
24338;DHT22;12457;50.832;4.346;2023-03-05T04:09:08;6.00;98.80
24338;DHT22;12457;50.832;4.346;2023-03-05T04:11:34;6.20;99.90
24338;DHT22;12457;50.832;4.346;2023-03-05T04:13:59;6.20;98.10
24338;DHT22;12457;50.832;4.346;2023-03-05T04:16:25;6.30;97.30
24338;DHT22;12457;50.832;4.346;2023-03-05T04:18:50;6.30;95.90
24338;DHT22;12457;50.832;4.346;2023-03-05T04:21:16;6.30;96.80
24338;DHT22;12457;50.832;4.346;2023-03-05T04:23:42;6.30;97.10
24338;DHT22;12457;50.832;4.346;2023-03-05T04:26:07;6.30;95.20
24338;DHT22;12457;50.832;4.346;2023-03-05T04:28:33;6.40;94.90
24338;DHT22;12457;50.832;4.346;2023-03-05T04:30:59;6.40;94.90
24338;DHT22;12457;50.832;4.346;2023-03-05T04:33:25;6.40;93.20
24338;DHT22;12457;50.832;4.346;2023-03-05T04:35:51;6.50;93.00
24338;DHT22;12457;50.832;4.346;2023-03-05T04:38:16;6.30;92.90
24338;DHT22;12457;50.832;4.346;2023-03-05T04:40:43;6.30;94.80
24338;DHT22;12457;50.832;4.346;2023-03-05T04:43:08;6.20;95.70
24338;DHT22;12457;50.832;4.346;2023-03-05T04:45:34;6.10;97.40
24338;DHT22;12457;50.832;4.346;2023-03-05T04:47:59;6.10;98.10
24338;DHT22;12457;50.832;4.346;2023-03-05T04:50:25;6.00;98.70
24338;DHT22;12457;50.832;4.346;2023-03-05T04:52:51;6.00;99.90
24338;DHT22;12457;50.832;4.346;2023-03-05T04:55:16;6.00;99.90
24338;DHT22;12457;50.832;4.346;2023-03-05T04:57:42;6.00;99.90
24338;DHT22;12457;50.832;4.346;2023-03-05T05:00:09;6.00;99.90
24338;DHT22;12457;50.832;4.346;2023-03-05T05:02:41;6.10;99.90
24338;DHT22;12457;50.832;4.346;2023-03-05T05:05:08;6.10;99.90
24338;DHT22;12457;50.832;4.346;2023-03-05T05:07:34;6.10;99.90
24338;DHT22;12457;50.832;4.346;2023-03-05T05:09:59;6.00;99.90
24338;DHT22;12457;50.832;4.346;2023-03-05T05:12:27;6.00;99.90
24338;DHT22;12457;50.832;4.346;2023-03-05T05:14:52;6.10;99.90
24338;DHT22;12457;50.832;4.346;2023-03-05T05:17:18;6.00;99.90
24338;DHT22;12457;50.832;4.346;2023-03-05T05:19:43;6.00;99.90
24338;DHT22;12457;50.832;4.346;2023-03-05T05:22:09;6.00;99.90
24338;DHT22;12457;50.832;4.346;2023-03-05T05:24:34;6.10;99.90
24338;DHT22;12457;50.832;4.346;2023-03-05T05:27:00;6.10;99.90
24338;DHT22;12457;50.832;4.346;2023-03-05T05:29:26;6.30;98.50
24338;DHT22;12457;50.832;4.346;2023-03-05T05:31:51;6.20;97.20
24338;DHT22;12457;50.832;4.346;2023-03-05T05:34:18;6.20;98.10
24338;DHT22;12457;50.832;4.346;2023-03-05T05:36:43;6.20;98.50
24338;DHT22;12457;50.832;4.346;2023-03-05T05:39:09;6.10;99.40
24338;DHT22;12457;50.832;4.346;2023-03-05T05:41:35;6.00;99.90
24338;DHT22;12457;50.832;4.346;2023-03-05T05:44:00;6.00;99.90
24338;DHT22;12457;50.832;4.346;2023-03-05T05:46:26;5.90;99.90
24338;DHT22;12457;50.832;4.346;2023-03-05T05:48:53;5.90;99.90
24338;DHT22;12457;50.832;4.346;2023-03-05T05:51:20;5.90;99.90
24338;DHT22;12457;50.832;4.346;2023-03-05T05:53:46;5.90;99.90
24338;DHT22;12457;50.832;4.346;2023-03-05T05:56:12;6.00;99.90
24338;DHT22;12457;50.832;4.346;2023-03-05T05:58:38;6.00;99.90
24338;DHT22;12457;50.832;4.346;2023-03-05T06:01:14;6.00;99.90
24338;DHT22;12457;50.832;4.346;2023-03-05T06:03:40;6.00;99.90
24338;DHT22;12457;50.832;4.346;2023-03-05T06:06:09;6.00;99.90
24338;DHT22;12457;50.832;4.346;2023-03-05T06:08:35;5.90;99.90
24338;DHT22;12457;50.832;4.346;2023-03-05T06:11:00;6.00;99.90
24338;DHT22;12457;50.832;4.346;2023-03-05T06:13:26;6.00;99.90
24338;DHT22;12457;50.832;4.346;2023-03-05T06:15:58;6.00;99.90
24338;DHT22;12457;50.832;4.346;2023-03-05T06:18:24;5.90;99.90
24338;DHT22;12457;50.832;4.346;2023-03-05T06:20:55;6.00;99.90
24338;DHT22;12457;50.832;4.346;2023-03-05T06:23:21;6.10;99.90
24338;DHT22;12457;50.832;4.346;2023-03-05T06:25:47;6.10;99.90
24338;DHT22;12457;50.832;4.346;2023-03-05T06:28:12;6.10;99.90
24338;DHT22;12457;50.832;4.346;2023-03-05T06:30:38;6.10;99.90
24338;DHT22;12457;50.832;4.346;2023-03-05T06:33:03;6.10;99.90
24338;DHT22;12457;50.832;4.346;2023-03-05T06:35:29;5.90;99.90
24338;DHT22;12457;50.832;4.346;2023-03-05T06:37:54;6.00;99.90
24338;DHT22;12457;50.832;4.346;2023-03-05T06:40:20;5.90;99.90
24338;DHT22;12457;50.832;4.346;2023-03-05T06:42:45;6.00;99.90
24338;DHT22;12457;50.832;4.346;2023-03-05T06:45:11;6.10;99.90
24338;DHT22;12457;50.832;4.346;2023-03-05T06:47:36;6.00;99.90
24338;DHT22;12457;50.832;4.346;2023-03-05T06:50:02;6.00;99.90
24338;DHT22;12457;50.832;4.346;2023-03-05T06:52:28;6.00;99.90
24338;DHT22;12457;50.832;4.346;2023-03-05T06:54:53;6.10;99.90
24338;DHT22;12457;50.832;4.346;2023-03-05T06:57:20;6.00;99.90
24338;DHT22;12457;50.832;4.346;2023-03-05T06:59:46;6.00;99.90
24338;DHT22;12457;50.832;4.346;2023-03-05T07:02:12;5.90;99.90
24338;DHT22;12457;50.832;4.346;2023-03-05T07:04:38;5.90;99.90
24338;DHT22;12457;50.832;4.346;2023-03-05T07:07:07;5.90;99.90
24338;DHT22;12457;50.832;4.346;2023-03-05T07:09:33;5.90;99.90
24338;DHT22;12457;50.832;4.346;2023-03-05T07:12:08;5.80;99.90
24338;DHT22;12457;50.832;4.346;2023-03-05T07:14:33;5.80;99.90
24338;DHT22;12457;50.832;4.346;2023-03-05T07:16:59;5.80;99.90
24338;DHT22;12457;50.832;4.346;2023-03-05T07:19:25;5.90;99.90
24338;DHT22;12457;50.832;4.346;2023-03-05T07:21:50;5.90;99.90
24338;DHT22;12457;50.832;4.346;2023-03-05T07:24:16;5.90;99.90
24338;DHT22;12457;50.832;4.346;2023-03-05T07:26:41;5.80;99.90
24338;DHT22;12457;50.832;4.346;2023-03-05T07:29:08;5.90;99.90
24338;DHT22;12457;50.832;4.346;2023-03-05T07:31:34;5.90;99.90
24338;DHT22;12457;50.832;4.346;2023-03-05T07:34:00;5.90;99.90
24338;DHT22;12457;50.832;4.346;2023-03-05T07:36:26;5.90;99.90
24338;DHT22;12457;50.832;4.346;2023-03-05T07:38:52;5.90;99.90
24338;DHT22;12457;50.832;4.346;2023-03-05T07:41:18;6.00;99.90
24338;DHT22;12457;50.832;4.346;2023-03-05T07:43:44;6.10;99.90
24338;DHT22;12457;50.832;4.346;2023-03-05T07:46:11;6.10;99.90
24338;DHT22;12457;50.832;4.346;2023-03-05T07:48:38;6.00;99.90
24338;DHT22;12457;50.832;4.346;2023-03-05T07:51:04;6.00;99.90
24338;DHT22;12457;50.832;4.346;2023-03-05T07:53:30;6.10;99.90
24338;DHT22;12457;50.832;4.346;2023-03-05T07:55:56;6.10;99.90
24338;DHT22;12457;50.832;4.346;2023-03-05T07:58:22;6.10;99.90
24338;DHT22;12457;50.832;4.346;2023-03-05T08:00:48;6.20;99.90
24338;DHT22;12457;50.832;4.346;2023-03-05T08:03:13;6.30;99.90
24338;DHT22;12457;50.832;4.346;2023-03-05T08:05:40;6.40;99.90
24338;DHT22;12457;50.832;4.346;2023-03-05T08:08:21;6.30;99.90
24338;DHT22;12457;50.832;4.346;2023-03-05T08:10:46;6.40;99.90
24338;DHT22;12457;50.832;4.346;2023-03-05T08:13:12;6.60;99.90
24338;DHT22;12457;50.832;4.346;2023-03-05T08:15:38;6.70;99.90
24338;DHT22;12457;50.832;4.346;2023-03-05T08:18:04;6.70;99.90
24338;DHT22;12457;50.832;4.346;2023-03-05T08:20:30;6.90;99.90
24338;DHT22;12457;50.832;4.346;2023-03-05T08:23:17;7.00;99.90
24338;DHT22;12457;50.832;4.346;2023-03-05T08:25:42;7.20;99.90
24338;DHT22;12457;50.832;4.346;2023-03-05T08:28:08;7.10;99.90
24338;DHT22;12457;50.832;4.346;2023-03-05T08:30:33;7.10;99.90
24338;DHT22;12457;50.832;4.346;2023-03-05T08:32:59;7.20;99.90
24338;DHT22;12457;50.832;4.346;2023-03-05T08:35:24;7.20;99.90
24338;DHT22;12457;50.832;4.346;2023-03-05T08:37:50;7.20;99.00
24338;DHT22;12457;50.832;4.346;2023-03-05T08:40:16;7.30;96.70
24338;DHT22;12457;50.832;4.346;2023-03-05T08:42:42;7.30;96.10
24338;DHT22;12457;50.832;4.346;2023-03-05T08:45:09;7.40;95.00
24338;DHT22;12457;50.832;4.346;2023-03-05T08:47:35;7.60;93.00
24338;DHT22;12457;50.832;4.346;2023-03-05T08:50:01;7.70;93.20
24338;DHT22;12457;50.832;4.346;2023-03-05T08:52:26;7.90;91.70
24338;DHT22;12457;50.832;4.346;2023-03-05T08:54:52;7.80;90.00
24338;DHT22;12457;50.832;4.346;2023-03-05T08:57:18;7.70;89.50
24338;DHT22;12457;50.832;4.346;2023-03-05T08:59:43;7.60;92.10
24338;DHT22;12457;50.832;4.346;2023-03-05T09:02:09;7.70;93.00
24338;DHT22;12457;50.832;4.346;2023-03-05T09:04:37;7.80;92.00
24338;DHT22;12457;50.832;4.346;2023-03-05T09:07:03;7.90;93.20
24338;DHT22;12457;50.832;4.346;2023-03-05T09:09:29;8.00;90.60
24338;DHT22;12457;50.832;4.346;2023-03-05T09:11:58;8.00;85.00
24338;DHT22;12457;50.832;4.346;2023-03-05T09:14:24;8.00;84.70
24338;DHT22;12457;50.832;4.346;2023-03-05T09:16:49;7.90;82.50
24338;DHT22;12457;50.832;4.346;2023-03-05T09:19:15;7.60;87.90
24338;DHT22;12457;50.832;4.346;2023-03-05T09:21:40;7.30;89.10
24338;DHT22;12457;50.832;4.346;2023-03-05T09:24:06;7.20;93.50
24338;DHT22;12457;50.832;4.346;2023-03-05T09:26:32;7.10;94.30
24338;DHT22;12457;50.832;4.346;2023-03-05T09:28:57;7.00;93.20
24338;DHT22;12457;50.832;4.346;2023-03-05T09:31:23;6.80;95.50
24338;DHT22;12457;50.832;4.346;2023-03-05T09:33:49;6.70;93.70
24338;DHT22;12457;50.832;4.346;2023-03-05T09:36:19;6.70;95.60
24338;DHT22;12457;50.832;4.346;2023-03-05T09:38:47;6.50;94.10
24338;DHT22;12457;50.832;4.346;2023-03-05T09:41:27;6.50;92.60
24338;DHT22;12457;50.832;4.346;2023-03-05T09:44:01;6.60;95.40
24338;DHT22;12457;50.832;4.346;2023-03-05T09:46:45;6.50;95.60
24338;DHT22;12457;50.832;4.346;2023-03-05T09:51:41;6.30;97.90
24338;DHT22;12457;50.832;4.346;2023-03-05T09:54:44;6.10;99.50
24338;DHT22;12457;50.832;4.346;2023-03-05T09:57:02;5.30;99.90
24338;DHT22;12457;50.832;4.346;2023-03-05T09:59:48;4.80;99.90
24338;DHT22;12457;50.832;4.346;2023-03-05T10:02:33;4.80;99.90
24338;DHT22;12457;50.832;4.346;2023-03-05T10:07:32;5.30;99.90
24338;DHT22;12457;50.832;4.346;2023-03-05T10:12:42;5.40;99.90
24338;DHT22;12457;50.832;4.346;2023-03-05T10:15:15;5.40;99.90
24338;DHT22;12457;50.832;4.346;2023-03-05T10:20:32;5.50;99.90
24338;DHT22;12457;50.832;4.346;2023-03-05T10:26:03;5.40;99.90
24338;DHT22;12457;50.832;4.346;2023-03-05T10:33:29;5.50;99.90
24338;DHT22;12457;50.832;4.346;2023-03-05T10:41:18;5.50;99.90
24338;DHT22;12457;50.832;4.346;2023-03-05T10:43:51;5.40;99.90
24338;DHT22;12457;50.832;4.346;2023-03-05T10:46:20;5.40;99.90
24338;DHT22;12457;50.832;4.346;2023-03-05T10:48:53;5.60;99.90
24338;DHT22;12457;50.832;4.346;2023-03-05T10:54:11;6.00;99.90
24338;DHT22;12457;50.832;4.346;2023-03-05T10:56:40;6.10;99.90
24338;DHT22;12457;50.832;4.346;2023-03-05T10:59:06;6.20;99.90
24338;DHT22;12457;50.832;4.346;2023-03-05T11:01:32;6.40;99.90
24338;DHT22;12457;50.832;4.346;2023-03-05T11:04:02;6.60;99.90
24338;DHT22;12457;50.832;4.346;2023-03-05T11:06:29;6.70;99.90
24338;DHT22;12457;50.832;4.346;2023-03-05T11:09:05;6.80;99.90
24338;DHT22;12457;50.832;4.346;2023-03-05T11:11:39;7.10;99.90
24338;DHT22;12457;50.832;4.346;2023-03-05T11:14:08;7.20;96.70
24338;DHT22;12457;50.832;4.346;2023-03-05T11:16:47;7.30;98.80
24338;DHT22;12457;50.832;4.346;2023-03-05T11:21:38;7.60;96.00
24338;DHT22;12457;50.832;4.346;2023-03-05T11:24:15;7.90;96.30
24338;DHT22;12457;50.832;4.346;2023-03-05T11:26:52;8.10;92.30
24338;DHT22;12457;50.832;4.346;2023-03-05T11:29:20;8.30;90.30
24338;DHT22;12457;50.832;4.346;2023-03-05T11:31:46;8.60;89.60
24338;DHT22;12457;50.832;4.346;2023-03-05T11:36:41;8.90;67.80
24338;DHT22;12457;50.832;4.346;2023-03-05T11:42:08;8.60;48.50
24338;DHT22;12457;50.832;4.346;2023-03-05T11:44:48;8.80;58.60
24338;DHT22;12457;50.832;4.346;2023-03-05T11:49:51;8.90;53.20
24338;DHT22;12457;50.832;4.346;2023-03-05T11:54:53;8.90;58.10
24338;DHT22;12457;50.832;4.346;2023-03-05T11:57:22;9.10;68.50
24338;DHT22;12457;50.832;4.346;2023-03-05T11:59:49;9.10;59.40
24338;DHT22;12457;50.832;4.346;2023-03-05T12:02:21;9.30;62.90
24338;DHT22;12457;50.832;4.346;2023-03-05T12:04:50;9.30;63.70
24338;DHT22;12457;50.832;4.346;2023-03-05T12:07:26;9.30;59.50
24338;DHT22;12457;50.832;4.346;2023-03-05T12:10:04;9.20;65.30
24338;DHT22;12457;50.832;4.346;2023-03-05T12:17:35;9.00;58.20
24338;DHT22;12457;50.832;4.346;2023-03-05T12:22:33;8.70;46.00
24338;DHT22;12457;50.832;4.346;2023-03-05T12:27:41;9.00;41.50
24338;DHT22;12457;50.832;4.346;2023-03-05T12:30:27;9.00;43.20
24338;DHT22;12457;50.832;4.346;2023-03-05T12:32:54;8.90;49.50
24338;DHT22;12457;50.832;4.346;2023-03-05T12:35:27;8.90;51.20
24338;DHT22;12457;50.832;4.346;2023-03-05T12:40:23;8.70;59.50
24338;DHT22;12457;50.832;4.346;2023-03-05T12:42:59;8.60;67.10
24338;DHT22;12457;50.832;4.346;2023-03-05T12:45:27;8.30;66.00
24338;DHT22;12457;50.832;4.346;2023-03-05T12:58:39;7.90;59.80
24338;DHT22;12457;50.832;4.346;2023-03-05T13:01:13;7.90;68.60
24338;DHT22;12457;50.832;4.346;2023-03-05T13:06:21;7.50;77.80
24338;DHT22;12457;50.832;4.346;2023-03-05T13:08:54;7.40;77.90
24338;DHT22;12457;50.832;4.346;2023-03-05T13:11:19;7.50;74.30
24338;DHT22;12457;50.832;4.346;2023-03-05T13:13:46;7.50;70.00
24338;DHT22;12457;50.832;4.346;2023-03-05T13:18:44;7.60;66.20
24338;DHT22;12457;50.832;4.346;2023-03-05T13:21:18;7.70;50.50
24338;DHT22;12457;50.832;4.346;2023-03-05T13:23:47;7.80;49.90
24338;DHT22;12457;50.832;4.346;2023-03-05T13:26:22;7.80;50.60
24338;DHT22;12457;50.832;4.346;2023-03-05T13:31:33;7.90;47.30
24338;DHT22;12457;50.832;4.346;2023-03-05T13:36:58;8.10;53.50
24338;DHT22;12457;50.832;4.346;2023-03-05T13:39:33;8.00;49.30
24338;DHT22;12457;50.832;4.346;2023-03-05T13:42:18;8.30;42.00
24338;DHT22;12457;50.832;4.346;2023-03-05T13:44:52;7.90;41.70
24338;DHT22;12457;50.832;4.346;2023-03-05T13:47:19;7.50;55.50
24338;DHT22;12457;50.832;4.346;2023-03-05T13:49:46;7.10;63.40
24338;DHT22;12457;50.832;4.346;2023-03-05T13:52:12;7.10;72.00
24338;DHT22;12457;50.832;4.346;2023-03-05T13:54:47;7.10;67.70
24338;DHT22;12457;50.832;4.346;2023-03-05T13:57:30;7.00;57.70
24338;DHT22;12457;50.832;4.346;2023-03-05T13:59:57;6.80;67.00
24338;DHT22;12457;50.832;4.346;2023-03-05T14:02:24;6.80;63.10
24338;DHT22;12457;50.832;4.346;2023-03-05T14:04:50;6.70;67.50
24338;DHT22;12457;50.832;4.346;2023-03-05T14:07:32;6.80;63.20
24338;DHT22;12457;50.832;4.346;2023-03-05T14:10:01;6.70;65.10
24338;DHT22;12457;50.832;4.346;2023-03-05T14:12:37;6.60;64.30
24338;DHT22;12457;50.832;4.346;2023-03-05T14:17:48;7.00;50.20
24338;DHT22;12457;50.832;4.346;2023-03-05T14:22:48;6.90;47.80
24338;DHT22;12457;50.832;4.346;2023-03-05T14:27:49;7.10;41.00
24338;DHT22;12457;50.832;4.346;2023-03-05T14:30:14;7.10;30.30
24338;DHT22;12457;50.832;4.346;2023-03-05T14:32:42;7.00;24.90
24338;DHT22;12457;50.832;4.346;2023-03-05T14:35:18;6.90;17.60
24338;DHT22;12457;50.832;4.346;2023-03-05T14:37:45;6.90;14.20
24338;DHT22;12457;50.832;4.346;2023-03-05T14:45:17;7.00;4.70
24338;DHT22;12457;50.832;4.346;2023-03-05T14:47:43;6.90;5.60
24338;DHT22;12457;50.832;4.346;2023-03-05T14:50:10;6.90;2.00
24338;DHT22;12457;50.832;4.346;2023-03-05T14:52:39;7.00;3.40
24338;DHT22;12457;50.832;4.346;2023-03-05T14:55:05;7.00;5.20
24338;DHT22;12457;50.832;4.346;2023-03-05T14:57:31;7.10;10.60
24338;DHT22;12457;50.832;4.346;2023-03-05T14:59:56;7.20;13.30
24338;DHT22;12457;50.832;4.346;2023-03-05T15:02:24;7.20;15.00
24338;DHT22;12457;50.832;4.346;2023-03-05T15:04:50;7.30;17.50
24338;DHT22;12457;50.832;4.346;2023-03-05T15:07:17;7.30;21.80
24338;DHT22;12457;50.832;4.346;2023-03-05T15:12:47;7.20;21.40
24338;DHT22;12457;50.832;4.346;2023-03-05T15:15:15;7.40;25.60
24338;DHT22;12457;50.832;4.346;2023-03-05T15:17:41;7.60;21.10
24338;DHT22;12457;50.832;4.346;2023-03-05T15:20:10;7.50;18.90
24338;DHT22;12457;50.832;4.346;2023-03-05T15:22:39;7.50;18.60
24338;DHT22;12457;50.832;4.346;2023-03-05T15:25:05;7.20;22.00
24338;DHT22;12457;50.832;4.346;2023-03-05T15:27:31;7.30;25.00
24338;DHT22;12457;50.832;4.346;2023-03-05T15:29:56;7.40;20.20
24338;DHT22;12457;50.832;4.346;2023-03-05T15:32:27;7.30;23.80
24338;DHT22;12457;50.832;4.346;2023-03-05T15:34:54;7.20;24.90
24338;DHT22;12457;50.832;4.346;2023-03-05T15:37:20;7.30;19.60
24338;DHT22;12457;50.832;4.346;2023-03-05T15:39:45;7.20;18.10
24338;DHT22;12457;50.832;4.346;2023-03-05T15:42:11;6.70;34.70
24338;DHT22;12457;50.832;4.346;2023-03-05T15:44:36;6.50;46.00
24338;DHT22;12457;50.832;4.346;2023-03-05T15:47:04;6.50;51.40
24338;DHT22;12457;50.832;4.346;2023-03-05T15:49:30;6.50;52.20
24338;DHT22;12457;50.832;4.346;2023-03-05T15:51:55;6.50;54.60
24338;DHT22;12457;50.832;4.346;2023-03-05T15:54:21;6.50;52.90
24338;DHT22;12457;50.832;4.346;2023-03-05T15:56:52;6.50;48.40
24338;DHT22;12457;50.832;4.346;2023-03-05T15:59:19;6.40;55.90
24338;DHT22;12457;50.832;4.346;2023-03-05T16:01:46;6.60;54.50
24338;DHT22;12457;50.832;4.346;2023-03-05T16:04:13;6.70;54.20
24338;DHT22;12457;50.832;4.346;2023-03-05T16:06:39;6.70;56.50
24338;DHT22;12457;50.832;4.346;2023-03-05T16:09:05;6.90;54.20
24338;DHT22;12457;50.832;4.346;2023-03-05T16:11:31;6.90;54.00
24338;DHT22;12457;50.832;4.346;2023-03-05T16:13:57;7.00;54.20
24338;DHT22;12457;50.832;4.346;2023-03-05T16:16:26;6.90;55.10
24338;DHT22;12457;50.832;4.346;2023-03-05T16:18:52;6.90;60.00
24338;DHT22;12457;50.832;4.346;2023-03-05T16:21:18;6.70;62.60
24338;DHT22;12457;50.832;4.346;2023-03-05T16:23:43;6.60;65.20
24338;DHT22;12457;50.832;4.346;2023-03-05T16:26:09;6.50;70.50
24338;DHT22;12457;50.832;4.346;2023-03-05T16:28:35;6.50;70.20
24338;DHT22;12457;50.832;4.346;2023-03-05T16:31:00;6.50;73.30
24338;DHT22;12457;50.832;4.346;2023-03-05T16:33:26;6.60;72.70
24338;DHT22;12457;50.832;4.346;2023-03-05T16:36:38;6.50;72.60
24338;DHT22;12457;50.832;4.346;2023-03-05T16:38:38;6.50;73.90
24338;DHT22;12457;50.832;4.346;2023-03-05T16:41:04;6.50;77.30
24338;DHT22;12457;50.832;4.346;2023-03-05T16:43:29;6.50;77.50
24338;DHT22;12457;50.832;4.346;2023-03-05T16:45:55;6.60;75.80
24338;DHT22;12457;50.832;4.346;2023-03-05T16:48:21;6.60;76.10
24338;DHT22;12457;50.832;4.346;2023-03-05T16:50:46;6.70;75.00
24338;DHT22;12457;50.832;4.346;2023-03-05T16:53:12;6.70;73.20
24338;DHT22;12457;50.832;4.346;2023-03-05T16:55:43;6.70;70.20
24338;DHT22;12457;50.832;4.346;2023-03-05T16:58:09;6.70;68.90
24338;DHT22;12457;50.832;4.346;2023-03-05T17:00:36;6.50;73.10
24338;DHT22;12457;50.832;4.346;2023-03-05T17:03:02;6.40;77.00
24338;DHT22;12457;50.832;4.346;2023-03-05T17:05:28;6.30;80.70
24338;DHT22;12457;50.832;4.346;2023-03-05T17:07:54;6.20;84.20
24338;DHT22;12457;50.832;4.346;2023-03-05T17:10:21;6.30;86.20
24338;DHT22;12457;50.832;4.346;2023-03-05T17:12:46;6.40;77.80
24338;DHT22;12457;50.832;4.346;2023-03-05T17:15:12;6.40;73.90
24338;DHT22;12457;50.832;4.346;2023-03-05T17:17:37;6.40;73.60
24338;DHT22;12457;50.832;4.346;2023-03-05T17:20:05;6.30;74.10
24338;DHT22;12457;50.832;4.346;2023-03-05T17:22:30;6.20;75.50
24338;DHT22;12457;50.832;4.346;2023-03-05T17:24:56;6.10;76.90
24338;DHT22;12457;50.832;4.346;2023-03-05T17:27:22;6.10;73.20
24338;DHT22;12457;50.832;4.346;2023-03-05T17:29:48;5.90;74.70